createdAt,value
2023-04-07T00:01:19.886Z,2.20
2023-04-07T00:03:46.573Z,2.20
2023-04-07T00:06:13.372Z,2.20
2023-04-07T00:08:39.860Z,2.20
2023-04-07T00:11:06.488Z,2.18
2023-04-07T00:13:32.908Z,2.18
2023-04-07T00:15:59.356Z,2.10
2023-04-07T00:18:26.103Z,2.10
2023-04-07T00:20:52.578Z,2.10
2023-04-07T00:23:19.810Z,2.10
2023-04-07T00:25:48.821Z,2.10
2023-04-07T00:28:15.386Z,2.10
2023-04-07T00:30:41.766Z,2.10
2023-04-07T00:33:09.819Z,2.10
2023-04-07T00:35:36.441Z,2.12
2023-04-07T00:38:03.427Z,2.10
2023-04-07T00:40:29.985Z,2.10
2023-04-07T00:42:56.487Z,2.10
2023-04-07T00:45:22.911Z,2.10
2023-04-07T00:47:49.457Z,2.14
2023-04-07T00:50:16.180Z,2.10
2023-04-07T00:52:42.833Z,2.10
2023-04-07T00:55:09.618Z,2.10
2023-04-07T00:57:36.206Z,2.10
2023-04-07T01:00:02.879Z,2.10
2023-04-07T01:02:52.262Z,2.10
2023-04-07T01:05:33.914Z,2.10
2023-04-07T01:08:12.348Z,2.10
2023-04-07T01:11:27.010Z,2.10
2023-04-07T01:13:55.497Z,2.10
2023-04-07T01:16:34.564Z,2.10
2023-04-07T01:19:15.748Z,2.20
2023-04-07T01:21:46.854Z,2.20
2023-04-07T01:24:39.425Z,2.18
2023-04-07T01:27:43.805Z,2.14
2023-04-07T01:30:13.180Z,2.10
2023-04-07T01:32:43.728Z,2.10
2023-04-07T01:35:14.469Z,2.10
2023-04-07T01:37:41.505Z,2.10
2023-04-07T01:40:09.888Z,2.18
2023-04-07T01:42:39.153Z,2.20
2023-04-07T01:45:08.216Z,2.20
2023-04-07T01:47:37.465Z,2.20
2023-04-07T01:50:06.118Z,2.20
2023-04-07T01:52:35.312Z,2.16
2023-04-07T01:55:03.940Z,2.12
2023-04-07T01:57:30.528Z,2.20
2023-04-07T01:59:56.919Z,2.20
2023-04-07T02:02:23.684Z,2.20
2023-04-07T02:04:57.094Z,2.20
2023-04-07T02:07:46.385Z,2.20
2023-04-07T02:13:13.232Z,2.20
2023-04-07T02:15:41.538Z,2.20
2023-04-07T02:18:10.609Z,2.12
2023-04-07T02:20:37.881Z,2.14
2023-04-07T02:23:04.365Z,2.20
2023-04-07T02:25:32.654Z,2.30
2023-04-07T02:28:01.330Z,2.30
2023-04-07T02:30:28.398Z,2.20
2023-04-07T02:32:54.980Z,2.20
2023-04-07T02:35:21.671Z,2.20
2023-04-07T02:37:48.499Z,2.30
2023-04-07T02:40:15.762Z,2.30
2023-04-07T02:42:43.062Z,2.30
2023-04-07T02:45:10.601Z,2.30
2023-04-07T02:47:39.784Z,2.32
2023-04-07T02:50:07.168Z,2.30
2023-04-07T02:52:33.604Z,2.30
2023-04-07T02:55:00.989Z,2.36
2023-04-07T02:57:27.409Z,2.40
2023-04-07T02:59:56.099Z,2.40
2023-04-07T03:02:22.570Z,2.40
2023-04-07T03:04:51.307Z,2.42
2023-04-07T03:07:17.742Z,2.40
2023-04-07T03:09:44.266Z,2.40
2023-04-07T03:12:11.167Z,2.40
2023-04-07T03:14:38.614Z,2.40
2023-04-07T03:17:05.858Z,2.42
2023-04-07T03:19:32.444Z,2.50
2023-04-07T03:21:58.869Z,2.50
2023-04-07T03:24:25.429Z,2.50
2023-04-07T03:26:52.106Z,2.50
2023-04-07T03:29:19.654Z,2.50
2023-04-07T03:31:46.542Z,2.52
2023-04-07T03:34:13.519Z,2.50
2023-04-07T03:36:39.912Z,2.50
2023-04-07T03:39:06.661Z,2.50
2023-04-07T03:41:33.600Z,2.50
2023-04-07T03:44:00.483Z,2.50
2023-04-07T03:46:27.246Z,2.60
2023-04-07T03:48:54.061Z,2.60
2023-04-07T03:51:20.809Z,2.60
2023-04-07T03:53:47.279Z,2.66
2023-04-07T03:56:13.969Z,2.60
2023-04-07T03:58:42.740Z,2.60
2023-04-07T04:01:09.295Z,2.60
2023-04-07T04:03:35.967Z,2.66
2023-04-07T04:06:02.561Z,2.70
2023-04-07T04:08:29.408Z,2.70
2023-04-07T04:10:55.871Z,2.70
2023-04-07T04:13:22.254Z,2.70
2023-04-07T04:15:48.733Z,2.72
2023-04-07T04:18:15.543Z,2.70
2023-04-07T04:20:43.037Z,2.80
2023-04-07T04:23:09.656Z,2.80
2023-04-07T04:25:36.280Z,2.80
2023-04-07T04:28:02.676Z,2.90
2023-04-07T04:30:29.157Z,2.90
2023-04-07T04:32:55.695Z,2.90
2023-04-07T04:35:22.176Z,2.90
2023-04-07T04:37:48.681Z,2.90
2023-04-07T04:40:15.317Z,2.96
2023-04-07T04:42:41.777Z,2.90
2023-04-07T04:45:08.854Z,2.92
2023-04-07T04:47:35.352Z,3.00
2023-04-07T04:50:01.871Z,3.00
2023-04-07T04:52:28.791Z,3.00
2023-04-07T04:54:55.357Z,3.02
2023-04-07T04:57:21.790Z,3.10
2023-04-07T04:59:48.203Z,3.10
2023-04-07T05:02:14.802Z,3.10
2023-04-07T05:04:41.481Z,3.10
2023-04-07T05:07:07.974Z,3.10
2023-04-07T05:09:34.432Z,3.10
2023-04-07T05:12:02.621Z,3.10
2023-04-07T05:14:29.075Z,3.20
2023-04-07T05:16:55.533Z,3.20
2023-04-07T05:19:21.957Z,3.18
2023-04-07T05:21:48.369Z,3.16
2023-04-07T05:24:14.954Z,3.18
2023-04-07T05:26:41.326Z,3.20
2023-04-07T05:29:07.743Z,3.20
2023-04-07T05:31:37.518Z,3.20
2023-04-07T05:34:04.037Z,3.28
2023-04-07T05:36:31.472Z,3.30
2023-04-07T05:38:57.933Z,3.30
2023-04-07T05:41:24.553Z,3.30
2023-04-07T05:43:51.131Z,3.36
2023-04-07T05:46:17.629Z,3.36
2023-04-07T05:48:44.203Z,3.40
2023-04-07T05:51:10.740Z,3.40
2023-04-07T05:53:37.217Z,3.44
2023-04-07T05:56:03.766Z,3.50
2023-04-07T05:58:30.363Z,3.58
2023-04-07T06:00:57.046Z,3.60
2023-04-07T06:03:23.628Z,3.60
2023-04-07T06:05:50.352Z,3.62
2023-04-07T06:08:16.785Z,3.62
2023-04-07T06:10:44.226Z,3.64
2023-04-07T06:13:10.830Z,3.70
2023-04-07T06:15:37.356Z,3.70
2023-04-07T06:18:03.828Z,3.70
2023-04-07T06:20:31.460Z,3.80
2023-04-07T06:23:00.207Z,3.80
2023-04-07T06:25:26.666Z,3.82
2023-04-07T06:27:54.732Z,3.90
2023-04-07T06:30:21.219Z,3.90
2023-04-07T06:32:47.761Z,4.00
2023-04-07T06:35:14.939Z,4.00
2023-04-07T06:37:41.532Z,3.90
2023-04-07T06:40:08.743Z,4.00
2023-04-07T06:42:35.163Z,4.00
2023-04-07T06:45:01.601Z,4.10
2023-04-07T06:47:28.593Z,4.10
2023-04-07T06:49:55.448Z,4.12
2023-04-07T06:52:21.873Z,4.20
2023-04-07T06:54:48.561Z,4.20
2023-04-07T06:57:15.684Z,4.26
2023-04-07T06:59:42.057Z,4.30
2023-04-07T07:02:08.811Z,4.30
2023-04-07T07:04:35.651Z,4.32
2023-04-07T07:07:03.241Z,4.40
2023-04-07T07:09:29.752Z,4.50
2023-04-07T07:11:56.141Z,4.50
2023-04-07T07:14:22.547Z,4.60
2023-04-07T07:16:49.241Z,4.60
2023-04-07T07:19:15.890Z,4.70
2023-04-07T07:21:42.299Z,4.70
2023-04-07T07:24:08.745Z,4.80
2023-04-07T07:26:35.322Z,4.80
2023-04-07T07:29:01.911Z,4.90
2023-04-07T07:31:28.433Z,5.00
2023-04-07T07:33:55.276Z,5.00
2023-04-07T07:36:21.816Z,5.10
2023-04-07T07:38:51.546Z,5.14
2023-04-07T07:41:18.027Z,5.28
2023-04-07T07:43:44.642Z,5.34
2023-04-07T07:46:11.580Z,5.40
2023-04-07T07:48:38.087Z,5.40
2023-04-07T07:51:05.063Z,5.40
2023-04-07T07:53:31.430Z,5.42
2023-04-07T07:55:58.121Z,5.44
2023-04-07T07:58:24.761Z,5.50
2023-04-07T08:00:51.833Z,5.50
2023-04-07T08:03:20.173Z,5.50
2023-04-07T08:05:49.288Z,5.48
2023-04-07T08:08:15.696Z,5.50
2023-04-07T08:10:42.062Z,5.50
2023-04-07T08:13:08.544Z,5.54
2023-04-07T08:15:35.292Z,5.52
2023-04-07T08:18:04.462Z,5.50
2023-04-07T08:20:32.397Z,5.50
2023-04-07T08:23:01.933Z,5.54
2023-04-07T08:25:29.635Z,5.60
2023-04-07T08:27:56.508Z,5.60
2023-04-07T08:30:23.064Z,5.60
2023-04-07T08:32:49.591Z,5.70
2023-04-07T08:35:16.095Z,5.70
2023-04-07T08:37:44.246Z,5.80
2023-04-07T08:40:12.475Z,5.90
2023-04-07T08:42:46.219Z,5.90
2023-04-07T08:45:13.813Z,5.90
2023-04-07T08:47:44.014Z,5.90
2023-04-07T08:50:12.005Z,5.90
2023-04-07T08:52:46.111Z,5.90
2023-04-07T08:55:13.193Z,5.90
2023-04-07T08:57:41.053Z,5.90
2023-04-07T09:00:09.053Z,5.90
2023-04-07T09:02:39.210Z,5.84
2023-04-07T09:05:09.017Z,5.80
2023-04-07T09:07:37.557Z,5.80
2023-04-07T09:10:05.273Z,5.80
2023-04-07T09:12:33.074Z,5.72
2023-04-07T09:15:00.428Z,5.70
2023-04-07T09:17:29.535Z,5.70
2023-04-07T09:20:01.086Z,5.70
2023-04-07T09:22:47.282Z,5.78
2023-04-07T09:25:22.677Z,5.76
2023-04-07T09:28:05.842Z,5.80
2023-04-07T09:30:34.100Z,5.80
2023-04-07T09:33:02.078Z,5.90
2023-04-07T09:35:30.183Z,5.90
2023-04-07T09:38:06.636Z,5.90
2023-04-07T09:40:33.782Z,5.98
2023-04-07T09:43:04.191Z,6.00
2023-04-07T09:45:35.179Z,6.00
2023-04-07T09:48:07.238Z,6.00
2023-04-07T09:50:41.569Z,6.00
2023-04-07T09:53:08.102Z,6.00
2023-04-07T09:55:36.863Z,6.00
2023-04-07T09:58:06.280Z,6.00
2023-04-07T10:00:32.915Z,6.08
2023-04-07T10:03:00.396Z,6.20
2023-04-07T10:05:27.985Z,6.20
2023-04-07T10:07:54.914Z,6.30
2023-04-07T10:10:22.200Z,6.30
2023-04-07T10:12:53.752Z,6.32
2023-04-07T10:15:20.890Z,6.30
2023-04-07T10:17:49.142Z,6.30
2023-04-07T10:20:20.972Z,6.30
2023-04-07T10:22:55.392Z,6.30
2023-04-07T10:25:24.758Z,6.30
2023-04-07T10:27:56.464Z,6.30
2023-04-07T10:30:32.164Z,6.30
2023-04-07T10:32:59.425Z,6.30
2023-04-07T10:35:26.593Z,6.22
2023-04-07T10:38:08.173Z,6.20
2023-04-07T10:40:36.566Z,6.20
2023-04-07T10:43:04.636Z,6.30
2023-04-07T10:45:59.848Z,6.30
2023-04-07T10:48:28.626Z,6.30
2023-04-07T10:51:08.433Z,6.40
2023-04-07T10:53:35.001Z,6.30
2023-04-07T10:56:01.958Z,6.20
2023-04-07T10:58:34.384Z,6.20
2023-04-07T11:01:04.155Z,6.30
2023-04-07T11:03:36.941Z,6.40
2023-04-07T11:06:11.417Z,6.50
2023-04-07T11:08:44.798Z,6.58
2023-04-07T11:11:16.881Z,6.60
2023-04-07T11:13:49.011Z,6.60
2023-04-07T11:16:19.833Z,6.62
2023-04-07T11:18:50.803Z,6.68
2023-04-07T11:21:19.722Z,6.70
2023-04-07T11:23:48.439Z,6.80
2023-04-07T11:26:16.053Z,6.80
2023-04-07T11:28:52.528Z,6.80
2023-04-07T11:31:31.464Z,6.90
2023-04-07T11:34:09.176Z,7.00
2023-04-07T11:36:40.359Z,7.10
2023-04-07T11:39:22.143Z,7.10
2023-04-07T11:41:50.979Z,7.10
2023-04-07T11:44:17.757Z,7.10
2023-04-07T11:47:01.122Z,7.10
2023-04-07T11:49:28.864Z,7.20
2023-04-07T11:52:07.105Z,7.22
2023-04-07T11:54:51.847Z,7.30
2023-04-07T11:57:29.519Z,7.30
2023-04-07T12:00:10.723Z,7.30
2023-04-07T12:02:38.043Z,7.30
2023-04-07T12:05:05.817Z,7.36
2023-04-07T12:07:33.695Z,7.40
2023-04-07T12:10:22.376Z,7.40
2023-04-07T12:12:49.326Z,7.40
2023-04-07T12:15:16.672Z,7.46
2023-04-07T12:17:48.016Z,7.50
2023-04-07T12:20:16.358Z,7.50
2023-04-07T12:22:42.997Z,7.50
2023-04-07T12:25:09.543Z,7.52
2023-04-07T12:27:42.618Z,7.60
2023-04-07T12:30:11.487Z,7.60
2023-04-07T12:32:38.336Z,7.60
2023-04-07T12:35:06.151Z,7.70
2023-04-07T12:37:32.943Z,7.70
2023-04-07T12:39:59.929Z,7.70
2023-04-07T12:42:27.418Z,7.70
2023-04-07T12:44:53.794Z,7.80
2023-04-07T12:47:20.837Z,7.80
2023-04-07T12:49:49.276Z,7.90
2023-04-07T12:52:16.889Z,8.00
2023-04-07T12:54:44.503Z,8.10
2023-04-07T12:57:11.476Z,8.10
2023-04-07T12:59:37.940Z,8.14
2023-04-07T13:02:04.663Z,8.20
2023-04-07T13:04:31.512Z,8.30
2023-04-07T13:06:58.268Z,8.30
2023-04-07T13:09:25.605Z,8.40
2023-04-07T13:11:52.094Z,8.50
2023-04-07T13:14:18.443Z,8.50
2023-04-07T13:16:44.981Z,8.58
2023-04-07T13:19:11.549Z,8.64
2023-04-07T13:24:07.679Z,8.78
2023-04-07T13:26:34.619Z,8.80
2023-04-07T13:29:01.258Z,8.80
2023-04-07T13:31:28.448Z,8.90
2023-04-07T13:33:54.880Z,8.90
2023-04-07T13:36:23.276Z,8.98
2023-04-07T13:38:49.942Z,9.00
2023-04-07T13:41:16.340Z,9.00
2023-04-07T13:43:42.744Z,9.00
2023-04-07T13:46:27.284Z,9.00
2023-04-07T13:48:55.574Z,9.10
2023-04-07T13:51:22.106Z,9.10
2023-04-07T13:53:48.650Z,9.10
2023-04-07T13:56:15.483Z,9.10
2023-04-07T13:58:41.888Z,9.10
2023-04-07T14:01:08.685Z,9.10
2023-04-07T14:03:35.451Z,9.18
2023-04-07T14:06:02.878Z,9.20
2023-04-07T14:08:29.671Z,9.20
2023-04-07T14:10:56.199Z,9.30
2023-04-07T14:13:23.123Z,9.40
2023-04-07T14:15:57.770Z,9.40
2023-04-07T14:18:24.707Z,9.40
2023-04-07T14:20:51.091Z,9.48
2023-04-07T14:23:26.553Z,9.50
2023-04-07T14:26:03.412Z,9.50
2023-04-07T14:28:30.094Z,9.50
2023-04-07T14:30:56.514Z,9.50
2023-04-07T14:33:23.346Z,9.50
2023-04-07T14:35:49.890Z,9.50
2023-04-07T14:38:16.472Z,9.50
2023-04-07T14:40:46.741Z,9.50
2023-04-07T14:43:13.442Z,9.50
2023-04-07T14:45:39.820Z,9.60
2023-04-07T14:48:06.777Z,9.70
2023-04-07T14:50:33.821Z,9.70
2023-04-07T14:53:01.349Z,9.80
2023-04-07T14:55:27.876Z,9.80
2023-04-07T14:57:54.276Z,9.78
2023-04-07T15:00:20.725Z,9.80
2023-04-07T15:02:47.275Z,9.80
2023-04-07T15:05:13.888Z,9.80
2023-04-07T15:07:40.445Z,9.90
2023-04-07T15:10:07.564Z,9.90
2023-04-07T15:12:34.017Z,9.90
2023-04-07T15:15:00.434Z,9.94
2023-04-07T15:17:40.164Z,9.90
2023-04-07T15:20:10.583Z,9.90
2023-04-07T15:22:36.990Z,9.90
2023-04-07T15:25:03.667Z,9.90
2023-04-07T15:27:30.222Z,9.90
2023-04-07T15:29:56.667Z,9.90
2023-04-07T15:32:23.742Z,9.90
2023-04-07T15:34:50.667Z,9.90
2023-04-07T15:37:18.783Z,9.90
2023-04-07T15:39:45.406Z,9.90
2023-04-07T15:42:12.650Z,9.80
2023-04-07T15:44:40.203Z,9.70
2023-04-07T15:47:07.846Z,9.70
2023-04-07T15:49:37.227Z,9.60
2023-04-07T15:52:07.026Z,9.58
2023-04-07T15:54:33.612Z,9.50
2023-04-07T15:57:00.129Z,9.50
2023-04-07T15:59:29.432Z,9.40
2023-04-07T16:01:56.166Z,9.40
2023-04-07T16:04:22.740Z,9.40
2023-04-07T16:06:49.331Z,9.32
2023-04-07T16:09:15.847Z,9.34
2023-04-07T16:11:42.372Z,9.32
2023-04-07T16:14:09.399Z,9.30
2023-04-07T16:16:37.054Z,9.30
2023-04-07T16:19:03.570Z,9.24
2023-04-07T16:21:30.054Z,9.18
2023-04-07T16:23:56.404Z,9.10
2023-04-07T16:26:22.956Z,9.00
2023-04-07T16:28:49.376Z,8.90
2023-04-07T16:31:15.944Z,8.80
2023-04-07T16:33:42.403Z,8.76
2023-04-07T16:36:08.924Z,8.70
2023-04-07T16:38:35.469Z,8.56
2023-04-07T16:41:04.905Z,8.50
2023-04-07T16:43:31.517Z,8.40
2023-04-07T16:46:00.217Z,8.30
2023-04-07T16:48:26.962Z,8.30
2023-04-07T16:50:53.312Z,8.30
2023-04-07T16:53:21.230Z,8.20
2023-04-07T16:55:48.132Z,8.20
2023-04-07T16:58:18.875Z,8.20
2023-04-07T17:00:45.878Z,8.20
2023-04-07T17:03:15.381Z,8.12
2023-04-07T17:05:44.314Z,8.10
2023-04-07T17:08:11.132Z,8.10
2023-04-07T17:10:37.527Z,8.10
2023-04-07T17:13:03.974Z,8.00
2023-04-07T17:15:30.331Z,8.00
2023-04-07T17:17:56.802Z,8.00
2023-04-07T17:20:23.506Z,8.00
2023-04-07T17:22:49.964Z,7.98
2023-04-07T17:25:18.818Z,7.90
2023-04-07T17:27:47.882Z,7.90
2023-04-07T17:30:14.661Z,7.80
2023-04-07T17:32:41.584Z,7.80
2023-04-07T17:35:08.437Z,7.78
2023-04-07T17:37:34.799Z,7.70
2023-04-07T17:40:01.781Z,7.70
2023-04-07T17:42:28.317Z,7.60
2023-04-07T17:44:54.857Z,7.60
2023-04-07T17:47:21.440Z,7.60
2023-04-07T17:49:48.445Z,7.60
2023-04-07T17:52:14.861Z,7.58
2023-04-07T17:54:41.453Z,7.56
2023-04-07T17:57:08.521Z,7.50
2023-04-07T17:59:35.029Z,7.50
2023-04-07T18:02:08.607Z,7.50
2023-04-07T18:04:37.337Z,7.50
2023-04-07T18:07:04.873Z,7.50
2023-04-07T18:09:32.390Z,7.60
2023-04-07T18:12:01.201Z,7.60
2023-04-07T18:14:28.080Z,7.60
2023-04-07T18:16:56.862Z,7.54
2023-04-07T18:19:23.259Z,7.50
2023-04-07T18:21:52.971Z,7.50
2023-04-07T18:24:20.721Z,7.48
2023-04-07T18:26:47.773Z,7.40
2023-04-07T18:29:14.851Z,7.40
2023-04-07T18:31:44.867Z,7.40
2023-04-07T18:34:11.915Z,7.40
2023-04-07T18:36:41.257Z,7.36
2023-04-07T18:39:07.869Z,7.30
2023-04-07T18:41:34.578Z,7.30
2023-04-07T18:44:01.279Z,7.30
2023-04-07T18:46:27.860Z,7.20
2023-04-07T18:48:54.315Z,7.20
2023-04-07T18:51:20.868Z,7.18
2023-04-07T18:53:47.593Z,7.10
2023-04-07T18:56:14.244Z,7.00
2023-04-07T18:58:44.916Z,7.00
2023-04-07T19:01:13.259Z,6.90
2023-04-07T19:03:41.667Z,6.90
2023-04-07T19:06:08.888Z,6.90
2023-04-07T19:08:36.638Z,6.90
2023-04-07T19:11:03.690Z,6.90
2023-04-07T19:13:30.677Z,6.96
2023-04-07T19:15:57.558Z,6.96
2023-04-07T19:18:25.653Z,6.94
2023-04-07T19:20:52.367Z,6.90
2023-04-07T19:23:18.789Z,6.90
2023-04-07T19:25:45.978Z,6.90
2023-04-07T19:28:13.271Z,6.90
2023-04-07T19:30:39.760Z,6.90
2023-04-07T19:33:06.612Z,6.90
2023-04-07T19:35:33.472Z,6.90
2023-04-07T19:38:00.167Z,7.00
2023-04-07T19:40:26.608Z,7.00
2023-04-07T19:42:54.749Z,7.00
2023-04-07T19:45:21.455Z,7.00
2023-04-07T19:47:48.313Z,7.00
2023-04-07T19:50:14.998Z,7.00
2023-04-07T19:52:43.463Z,7.00
2023-04-07T19:55:10.865Z,6.90
2023-04-07T19:57:38.428Z,6.90
2023-04-07T20:00:06.616Z,6.90
2023-04-07T20:02:33.189Z,6.80
2023-04-07T20:04:59.745Z,6.80
2023-04-07T20:07:27.113Z,6.80
2023-04-07T20:09:57.357Z,6.80
2023-04-07T20:12:24.435Z,6.70
2023-04-07T20:14:51.137Z,6.70
2023-04-07T20:17:17.633Z,6.68
2023-04-07T20:19:44.086Z,6.60
2023-04-07T20:22:10.687Z,6.60
2023-04-07T20:24:37.250Z,6.60
2023-04-07T20:27:03.785Z,6.58
2023-04-07T20:29:30.425Z,6.44
2023-04-07T20:31:56.906Z,6.40
2023-04-07T20:34:23.334Z,6.40
2023-04-07T20:36:49.889Z,6.40
2023-04-07T20:39:16.589Z,6.40
2023-04-07T20:41:45.109Z,6.32
2023-04-07T20:44:12.141Z,6.30
2023-04-07T20:46:38.640Z,6.30
2023-04-07T20:49:07.604Z,6.30
2023-04-07T20:51:36.726Z,6.28
2023-04-07T20:54:03.912Z,6.20
2023-04-07T20:56:30.518Z,6.20
2023-04-07T20:58:57.367Z,6.10
2023-04-07T21:01:23.888Z,6.10
2023-04-07T21:03:50.447Z,6.10
2023-04-07T21:06:16.928Z,6.10
2023-04-07T21:08:43.324Z,6.10
2023-04-07T21:11:09.697Z,6.10
2023-04-07T21:13:36.136Z,6.10
2023-04-07T21:16:04.817Z,6.10
2023-04-07T21:18:31.973Z,6.10
2023-04-07T21:20:59.660Z,6.10
2023-04-07T21:23:26.080Z,6.10
2023-04-07T21:25:52.424Z,6.10
2023-04-07T21:28:18.843Z,6.10
2023-04-07T21:30:45.341Z,6.10
2023-04-07T21:33:13.492Z,6.10
2023-04-07T21:35:40.342Z,6.10
2023-04-07T21:38:06.762Z,6.10
2023-04-07T21:40:33.156Z,6.10
2023-04-07T21:42:59.538Z,6.10
2023-04-07T21:45:26.389Z,6.10
2023-04-07T21:47:52.818Z,6.10
2023-04-07T21:50:19.350Z,5.94
2023-04-07T21:52:45.791Z,5.90
2023-04-07T21:55:12.618Z,5.94
2023-04-07T21:57:39.049Z,6.00
2023-04-07T22:00:07.274Z,6.00
2023-04-07T22:02:34.109Z,6.00
2023-04-07T22:05:00.717Z,6.00
2023-04-07T22:07:27.158Z,5.98
2023-04-07T22:09:53.551Z,6.00
2023-04-07T22:12:20.363Z,5.92
2023-04-07T22:14:46.765Z,5.90
2023-04-07T22:17:13.177Z,5.90
2023-04-07T22:19:39.666Z,5.90
2023-04-07T22:22:08.094Z,5.90
2023-04-07T22:24:37.550Z,5.90
2023-04-07T22:27:03.922Z,5.80
2023-04-07T22:29:30.393Z,5.80
2023-04-07T22:31:56.802Z,5.80
2023-04-07T22:34:23.280Z,5.80
2023-04-07T22:36:49.641Z,5.70
2023-04-07T22:39:16.057Z,5.70
2023-04-07T22:41:42.425Z,5.60
2023-04-07T22:44:08.892Z,5.60
2023-04-07T22:46:35.418Z,5.60
2023-04-07T22:49:01.832Z,5.60
2023-04-07T22:51:29.372Z,5.60
2023-04-07T22:53:56.270Z,5.60
2023-04-07T22:56:24.194Z,5.60
2023-04-07T22:58:51.469Z,5.60
2023-04-07T23:01:18.298Z,5.60
2023-04-07T23:03:44.921Z,5.60
2023-04-07T23:06:11.371Z,5.60
2023-04-07T23:08:37.812Z,5.60
2023-04-07T23:11:09.649Z,5.60
2023-04-07T23:13:36.052Z,5.60
2023-04-07T23:16:03.876Z,5.60
2023-04-07T23:18:31.403Z,5.60
2023-04-07T23:20:57.738Z,5.60
2023-04-07T23:23:24.121Z,5.60
2023-04-07T23:25:50.499Z,5.60
2023-04-07T23:28:16.837Z,5.60
2023-04-07T23:30:43.554Z,5.60
2023-04-07T23:33:09.917Z,5.50
2023-04-07T23:35:36.448Z,5.40
2023-04-07T23:38:03.185Z,5.40
2023-04-07T23:40:29.664Z,5.40
2023-04-07T23:42:56.494Z,5.40
2023-04-07T23:45:23.012Z,5.40
2023-04-07T23:47:49.455Z,5.40
2023-04-07T23:50:16.366Z,5.48
2023-04-07T23:52:44.002Z,5.50
2023-04-07T23:55:10.640Z,5.50
2023-04-07T23:57:37.186Z,5.50
